sensor_id;sensor_type;location;lat;lon;timestamp;P1;durP1;ratioP1;P2;durP2;ratioP2
23658;SDS011;12006;42.666;23.326;2023-03-14T00:01:22;19.03;;;12.47;;
23658;SDS011;12006;42.666;23.326;2023-03-14T00:03:48;18.77;;;12.63;;
23658;SDS011;12006;42.666;23.326;2023-03-14T00:06:14;17.23;;;12.40;;
23658;SDS011;12006;42.666;23.326;2023-03-14T00:08:40;18.90;;;12.97;;
23658;SDS011;12006;42.666;23.326;2023-03-14T00:11:10;17.50;;;11.73;;
23658;SDS011;12006;42.666;23.326;2023-03-14T00:13:37;17.67;;;12.20;;
23658;SDS011;12006;42.666;23.326;2023-03-14T00:16:04;16.90;;;12.20;;
23658;SDS011;12006;42.666;23.326;2023-03-14T00:18:30;18.83;;;13.03;;
23658;SDS011;12006;42.666;23.326;2023-03-14T00:21:00;17.93;;;12.30;;
23658;SDS011;12006;42.666;23.326;2023-03-14T00:23:27;22.07;;;13.30;;
23658;SDS011;12006;42.666;23.326;2023-03-14T00:25:58;22.07;;;14.70;;
23658;SDS011;12006;42.666;23.326;2023-03-14T00:28:27;23.40;;;14.77;;
23658;SDS011;12006;42.666;23.326;2023-03-14T00:30:53;21.47;;;14.97;;
23658;SDS011;12006;42.666;23.326;2023-03-14T00:33:18;23.00;;;15.47;;
23658;SDS011;12006;42.666;23.326;2023-03-14T00:35:51;19.30;;;14.13;;
23658;SDS011;12006;42.666;23.326;2023-03-14T00:38:17;20.33;;;13.77;;
23658;SDS011;12006;42.666;23.326;2023-03-14T00:40:43;19.93;;;13.87;;
23658;SDS011;12006;42.666;23.326;2023-03-14T00:43:08;20.47;;;13.53;;
23658;SDS011;12006;42.666;23.326;2023-03-14T00:45:34;21.97;;;13.23;;
23658;SDS011;12006;42.666;23.326;2023-03-14T00:48:00;19.27;;;12.87;;
23658;SDS011;12006;42.666;23.326;2023-03-14T00:50:25;18.87;;;12.37;;
23658;SDS011;12006;42.666;23.326;2023-03-14T00:52:50;19.70;;;13.93;;
23658;SDS011;12006;42.666;23.326;2023-03-14T00:55:16;21.80;;;14.07;;
23658;SDS011;12006;42.666;23.326;2023-03-14T00:57:41;21.20;;;13.93;;
23658;SDS011;12006;42.666;23.326;2023-03-14T01:00:07;20.00;;;12.67;;
23658;SDS011;12006;42.666;23.326;2023-03-14T01:02:36;21.13;;;12.93;;
23658;SDS011;12006;42.666;23.326;2023-03-14T01:05:01;19.47;;;12.60;;
23658;SDS011;12006;42.666;23.326;2023-03-14T01:07:27;21.23;;;13.37;;
23658;SDS011;12006;42.666;23.326;2023-03-14T01:09:52;20.47;;;12.37;;
23658;SDS011;12006;42.666;23.326;2023-03-14T01:12:18;16.80;;;12.40;;
23658;SDS011;12006;42.666;23.326;2023-03-14T01:14:43;24.90;;;13.30;;
23658;SDS011;12006;42.666;23.326;2023-03-14T01:17:08;18.10;;;13.23;;
23658;SDS011;12006;42.666;23.326;2023-03-14T01:19:34;28.50;;;15.00;;
23658;SDS011;12006;42.666;23.326;2023-03-14T01:21:59;19.63;;;13.10;;
23658;SDS011;12006;42.666;23.326;2023-03-14T01:24:25;19.53;;;13.40;;
23658;SDS011;12006;42.666;23.326;2023-03-14T01:26:50;20.40;;;13.17;;
23658;SDS011;12006;42.666;23.326;2023-03-14T01:29:15;23.53;;;13.97;;
23658;SDS011;12006;42.666;23.326;2023-03-14T01:31:41;21.67;;;13.97;;
23658;SDS011;12006;42.666;23.326;2023-03-14T01:34:06;23.07;;;13.83;;
23658;SDS011;12006;42.666;23.326;2023-03-14T01:36:32;20.77;;;13.83;;
23658;SDS011;12006;42.666;23.326;2023-03-14T01:38:57;23.13;;;14.60;;
23658;SDS011;12006;42.666;23.326;2023-03-14T01:41:23;25.07;;;14.97;;
23658;SDS011;12006;42.666;23.326;2023-03-14T01:43:50;23.30;;;13.87;;
23658;SDS011;12006;42.666;23.326;2023-03-14T01:49:03;21.30;;;13.67;;
23658;SDS011;12006;42.666;23.326;2023-03-14T01:52:03;22.23;;;13.77;;
23658;SDS011;12006;42.666;23.326;2023-03-14T01:55:13;21.83;;;14.03;;
23658;SDS011;12006;42.666;23.326;2023-03-14T01:57:54;19.00;;;13.67;;
23658;SDS011;12006;42.666;23.326;2023-03-14T02:00:23;21.27;;;14.10;;
23658;SDS011;12006;42.666;23.326;2023-03-14T02:02:56;17.60;;;13.40;;
23658;SDS011;12006;42.666;23.326;2023-03-14T02:05:28;20.00;;;13.70;;
23658;SDS011;12006;42.666;23.326;2023-03-14T02:07:58;18.37;;;13.60;;
23658;SDS011;12006;42.666;23.326;2023-03-14T02:10:25;19.73;;;13.60;;
23658;SDS011;12006;42.666;23.326;2023-03-14T02:12:54;17.73;;;12.77;;
23658;SDS011;12006;42.666;23.326;2023-03-14T02:15:21;21.13;;;14.00;;
23658;SDS011;12006;42.666;23.326;2023-03-14T02:17:47;16.90;;;12.80;;
23658;SDS011;12006;42.666;23.326;2023-03-14T02:22:45;24.80;;;14.60;;
23658;SDS011;12006;42.666;23.326;2023-03-14T02:27:41;22.57;;;13.40;;
23658;SDS011;12006;42.666;23.326;2023-03-14T02:30:12;19.30;;;13.23;;
23658;SDS011;12006;42.666;23.326;2023-03-14T02:32:41;18.97;;;13.33;;
23658;SDS011;12006;42.666;23.326;2023-03-14T02:35:11;17.00;;;13.03;;
23658;SDS011;12006;42.666;23.326;2023-03-14T02:37:47;17.37;;;13.30;;
23658;SDS011;12006;42.666;23.326;2023-03-14T02:40:17;18.50;;;12.80;;
23658;SDS011;12006;42.666;23.326;2023-03-14T02:42:43;19.60;;;13.37;;
23658;SDS011;12006;42.666;23.326;2023-03-14T02:47:34;16.20;;;13.57;;
23658;SDS011;12006;42.666;23.326;2023-03-14T02:50:02;20.63;;;13.87;;
23658;SDS011;12006;42.666;23.326;2023-03-14T02:52:32;17.33;;;12.30;;
23658;SDS011;12006;42.666;23.326;2023-03-14T02:54:58;19.70;;;13.80;;
23658;SDS011;12006;42.666;23.326;2023-03-14T02:57:24;19.77;;;13.90;;
23658;SDS011;12006;42.666;23.326;2023-03-14T02:59:49;18.80;;;13.83;;
23658;SDS011;12006;42.666;23.326;2023-03-14T03:02:14;19.80;;;12.87;;
23658;SDS011;12006;42.666;23.326;2023-03-14T03:04:40;19.03;;;13.87;;
23658;SDS011;12006;42.666;23.326;2023-03-14T03:07:05;18.73;;;12.10;;
23658;SDS011;12006;42.666;23.326;2023-03-14T03:09:31;19.57;;;12.63;;
23658;SDS011;12006;42.666;23.326;2023-03-14T03:11:56;20.90;;;12.80;;
23658;SDS011;12006;42.666;23.326;2023-03-14T03:14:21;19.57;;;13.70;;
23658;SDS011;12006;42.666;23.326;2023-03-14T03:16:47;17.13;;;12.37;;
23658;SDS011;12006;42.666;23.326;2023-03-14T03:19:12;17.97;;;12.93;;
23658;SDS011;12006;42.666;23.326;2023-03-14T03:21:38;16.63;;;12.93;;
23658;SDS011;12006;42.666;23.326;2023-03-14T03:24:05;17.03;;;12.10;;
23658;SDS011;12006;42.666;23.326;2023-03-14T03:26:32;19.73;;;13.00;;
23658;SDS011;12006;42.666;23.326;2023-03-14T03:28:59;20.10;;;13.33;;
23658;SDS011;12006;42.666;23.326;2023-03-14T03:31:24;18.70;;;12.60;;
23658;SDS011;12006;42.666;23.326;2023-03-14T03:33:50;16.00;;;12.53;;
23658;SDS011;12006;42.666;23.326;2023-03-14T03:36:17;19.67;;;12.37;;
23658;SDS011;12006;42.666;23.326;2023-03-14T03:38:46;19.13;;;13.50;;
23658;SDS011;12006;42.666;23.326;2023-03-14T03:41:11;19.83;;;13.33;;
23658;SDS011;12006;42.666;23.326;2023-03-14T03:43:37;16.43;;;12.60;;
23658;SDS011;12006;42.666;23.326;2023-03-14T03:46:05;19.20;;;12.60;;
23658;SDS011;12006;42.666;23.326;2023-03-14T03:48:32;17.73;;;12.17;;
23658;SDS011;12006;42.666;23.326;2023-03-14T03:50:57;20.73;;;13.43;;
23658;SDS011;12006;42.666;23.326;2023-03-14T03:53:23;18.30;;;13.17;;
23658;SDS011;12006;42.666;23.326;2023-03-14T03:55:48;17.07;;;12.90;;
23658;SDS011;12006;42.666;23.326;2023-03-14T03:58:14;16.30;;;12.53;;
23658;SDS011;12006;42.666;23.326;2023-03-14T04:00:39;16.80;;;13.27;;
23658;SDS011;12006;42.666;23.326;2023-03-14T04:03:05;22.03;;;13.83;;
23658;SDS011;12006;42.666;23.326;2023-03-14T04:05:30;19.73;;;13.87;;
23658;SDS011;12006;42.666;23.326;2023-03-14T04:07:56;18.97;;;14.00;;
23658;SDS011;12006;42.666;23.326;2023-03-14T04:10:21;20.87;;;15.57;;
23658;SDS011;12006;42.666;23.326;2023-03-14T04:12:47;20.73;;;14.40;;
23658;SDS011;12006;42.666;23.326;2023-03-14T04:15:12;22.33;;;15.17;;
23658;SDS011;12006;42.666;23.326;2023-03-14T04:17:37;20.47;;;14.97;;
23658;SDS011;12006;42.666;23.326;2023-03-14T04:20:03;23.27;;;17.57;;
23658;SDS011;12006;42.666;23.326;2023-03-14T04:22:30;20.00;;;15.77;;
23658;SDS011;12006;42.666;23.326;2023-03-14T04:24:55;22.87;;;15.60;;
23658;SDS011;12006;42.666;23.326;2023-03-14T04:27:20;16.60;;;14.37;;
23658;SDS011;12006;42.666;23.326;2023-03-14T04:29:46;18.83;;;15.00;;
23658;SDS011;12006;42.666;23.326;2023-03-14T04:32:11;19.93;;;15.20;;
23658;SDS011;12006;42.666;23.326;2023-03-14T04:34:37;19.77;;;15.83;;
23658;SDS011;12006;42.666;23.326;2023-03-14T04:37:02;24.67;;;15.47;;
23658;SDS011;12006;42.666;23.326;2023-03-14T04:39:27;22.87;;;15.33;;
23658;SDS011;12006;42.666;23.326;2023-03-14T04:41:53;22.03;;;16.37;;
23658;SDS011;12006;42.666;23.326;2023-03-14T04:44:19;19.97;;;15.53;;
23658;SDS011;12006;42.666;23.326;2023-03-14T04:46:44;22.03;;;15.67;;
23658;SDS011;12006;42.666;23.326;2023-03-14T04:49:10;19.77;;;15.27;;
23658;SDS011;12006;42.666;23.326;2023-03-14T04:51:35;23.33;;;15.67;;
23658;SDS011;12006;42.666;23.326;2023-03-14T04:54:00;21.80;;;15.83;;
23658;SDS011;12006;42.666;23.326;2023-03-14T04:56:26;22.40;;;16.67;;
23658;SDS011;12006;42.666;23.326;2023-03-14T04:58:52;21.80;;;15.90;;
23658;SDS011;12006;42.666;23.326;2023-03-14T05:01:18;22.27;;;15.60;;
23658;SDS011;12006;42.666;23.326;2023-03-14T05:03:43;19.20;;;15.10;;
23658;SDS011;12006;42.666;23.326;2023-03-14T05:06:08;22.30;;;14.97;;
23658;SDS011;12006;42.666;23.326;2023-03-14T05:08:34;22.47;;;16.33;;
23658;SDS011;12006;42.666;23.326;2023-03-14T05:10:59;26.57;;;17.20;;
23658;SDS011;12006;42.666;23.326;2023-03-14T05:13:25;24.97;;;15.93;;
23658;SDS011;12006;42.666;23.326;2023-03-14T05:15:50;21.53;;;16.00;;
23658;SDS011;12006;42.666;23.326;2023-03-14T05:18:16;24.90;;;16.87;;
23658;SDS011;12006;42.666;23.326;2023-03-14T05:20:43;26.77;;;17.20;;
23658;SDS011;12006;42.666;23.326;2023-03-14T05:23:09;27.63;;;16.80;;
23658;SDS011;12006;42.666;23.326;2023-03-14T05:25:34;23.93;;;15.93;;
23658;SDS011;12006;42.666;23.326;2023-03-14T05:28:00;23.63;;;15.10;;
23658;SDS011;12006;42.666;23.326;2023-03-14T05:30:25;24.63;;;16.17;;
23658;SDS011;12006;42.666;23.326;2023-03-14T05:32:53;22.20;;;16.87;;
23658;SDS011;12006;42.666;23.326;2023-03-14T05:35:18;28.63;;;17.87;;
23658;SDS011;12006;42.666;23.326;2023-03-14T05:37:44;22.10;;;17.43;;
23658;SDS011;12006;42.666;23.326;2023-03-14T05:40:09;25.27;;;16.60;;
23658;SDS011;12006;42.666;23.326;2023-03-14T05:42:35;22.33;;;16.27;;
23658;SDS011;12006;42.666;23.326;2023-03-14T05:45:01;22.03;;;16.80;;
23658;SDS011;12006;42.666;23.326;2023-03-14T05:47:26;18.83;;;14.63;;
23658;SDS011;12006;42.666;23.326;2023-03-14T05:49:52;20.53;;;13.40;;
23658;SDS011;12006;42.666;23.326;2023-03-14T05:52:17;18.33;;;13.37;;
23658;SDS011;12006;42.666;23.326;2023-03-14T05:54:42;18.13;;;13.20;;
23658;SDS011;12006;42.666;23.326;2023-03-14T05:57:08;19.27;;;13.80;;
23658;SDS011;12006;42.666;23.326;2023-03-14T05:59:33;14.83;;;13.27;;
23658;SDS011;12006;42.666;23.326;2023-03-14T06:01:59;15.40;;;12.67;;
23658;SDS011;12006;42.666;23.326;2023-03-14T06:04:24;20.40;;;13.17;;
23658;SDS011;12006;42.666;23.326;2023-03-14T06:06:50;20.10;;;13.33;;
23658;SDS011;12006;42.666;23.326;2023-03-14T06:09:15;17.13;;;12.83;;
23658;SDS011;12006;42.666;23.326;2023-03-14T06:11:41;16.73;;;12.40;;
23658;SDS011;12006;42.666;23.326;2023-03-14T06:14:06;23.27;;;14.37;;
23658;SDS011;12006;42.666;23.326;2023-03-14T06:16:32;14.67;;;12.97;;
23658;SDS011;12006;42.666;23.326;2023-03-14T06:18:57;20.40;;;15.30;;
23658;SDS011;12006;42.666;23.326;2023-03-14T06:21:23;15.07;;;12.53;;
23658;SDS011;12006;42.666;23.326;2023-03-14T06:23:48;19.77;;;14.40;;
23658;SDS011;12006;42.666;23.326;2023-03-14T06:26:14;17.80;;;13.73;;
23658;SDS011;12006;42.666;23.326;2023-03-14T06:28:39;14.77;;;12.03;;
23658;SDS011;12006;42.666;23.326;2023-03-14T06:31:05;15.67;;;12.43;;
23658;SDS011;12006;42.666;23.326;2023-03-14T06:33:31;20.43;;;11.60;;
23658;SDS011;12006;42.666;23.326;2023-03-14T06:35:56;15.00;;;10.80;;
23658;SDS011;12006;42.666;23.326;2023-03-14T06:38:22;15.70;;;10.97;;
23658;SDS011;12006;42.666;23.326;2023-03-14T06:40:47;13.97;;;10.90;;
23658;SDS011;12006;42.666;23.326;2023-03-14T06:43:13;12.63;;;10.30;;
23658;SDS011;12006;42.666;23.326;2023-03-14T06:45:38;15.40;;;11.57;;
23658;SDS011;12006;42.666;23.326;2023-03-14T06:48:03;15.17;;;10.83;;
23658;SDS011;12006;42.666;23.326;2023-03-14T06:50:29;13.07;;;10.80;;
23658;SDS011;12006;42.666;23.326;2023-03-14T06:52:54;16.37;;;10.73;;
23658;SDS011;12006;42.666;23.326;2023-03-14T06:55:20;12.37;;;10.67;;
23658;SDS011;12006;42.666;23.326;2023-03-14T06:57:46;11.30;;;9.33;;
23658;SDS011;12006;42.666;23.326;2023-03-14T07:00:12;14.50;;;10.57;;
23658;SDS011;12006;42.666;23.326;2023-03-14T07:02:38;11.20;;;9.93;;
23658;SDS011;12006;42.666;23.326;2023-03-14T07:05:04;13.60;;;10.83;;
23658;SDS011;12006;42.666;23.326;2023-03-14T07:07:30;13.17;;;11.40;;
23658;SDS011;12006;42.666;23.326;2023-03-14T07:09:56;13.83;;;9.17;;
23658;SDS011;12006;42.666;23.326;2023-03-14T07:12:21;11.00;;;7.30;;
23658;SDS011;12006;42.666;23.326;2023-03-14T07:14:47;12.30;;;7.17;;
23658;SDS011;12006;42.666;23.326;2023-03-14T07:17:12;7.57;;;6.33;;
23658;SDS011;12006;42.666;23.326;2023-03-14T07:19:38;10.03;;;7.67;;
23658;SDS011;12006;42.666;23.326;2023-03-14T07:22:06;9.33;;;6.70;;
23658;SDS011;12006;42.666;23.326;2023-03-14T07:24:32;9.60;;;7.00;;
23658;SDS011;12006;42.666;23.326;2023-03-14T07:26:57;10.60;;;7.13;;
23658;SDS011;12006;42.666;23.326;2023-03-14T07:29:23;10.67;;;7.20;;
23658;SDS011;12006;42.666;23.326;2023-03-14T07:31:48;9.73;;;7.17;;
23658;SDS011;12006;42.666;23.326;2023-03-14T07:34:13;9.00;;;7.30;;
23658;SDS011;12006;42.666;23.326;2023-03-14T07:36:39;11.47;;;7.93;;
23658;SDS011;12006;42.666;23.326;2023-03-14T07:39:04;13.63;;;8.03;;
23658;SDS011;12006;42.666;23.326;2023-03-14T07:41:30;9.73;;;8.37;;
23658;SDS011;12006;42.666;23.326;2023-03-14T07:43:56;9.90;;;8.33;;
23658;SDS011;12006;42.666;23.326;2023-03-14T07:46:21;10.57;;;7.83;;
23658;SDS011;12006;42.666;23.326;2023-03-14T07:48:47;10.27;;;8.40;;
23658;SDS011;12006;42.666;23.326;2023-03-14T07:51:12;12.20;;;8.57;;
23658;SDS011;12006;42.666;23.326;2023-03-14T07:53:38;12.37;;;9.23;;
23658;SDS011;12006;42.666;23.326;2023-03-14T07:56:04;12.40;;;9.70;;
23658;SDS011;12006;42.666;23.326;2023-03-14T07:58:30;8.97;;;7.90;;
23658;SDS011;12006;42.666;23.326;2023-03-14T08:00:55;12.50;;;8.70;;
23658;SDS011;12006;42.666;23.326;2023-03-14T08:03:24;15.37;;;11.17;;
23658;SDS011;12006;42.666;23.326;2023-03-14T08:05:49;13.10;;;10.80;;
23658;SDS011;12006;42.666;23.326;2023-03-14T08:08:15;12.60;;;10.63;;
23658;SDS011;12006;42.666;23.326;2023-03-14T08:10:42;16.73;;;11.67;;
23658;SDS011;12006;42.666;23.326;2023-03-14T08:13:08;12.90;;;8.73;;
23658;SDS011;12006;42.666;23.326;2023-03-14T08:15:35;12.63;;;10.70;;
23658;SDS011;12006;42.666;23.326;2023-03-14T08:18:01;13.37;;;11.03;;
23658;SDS011;12006;42.666;23.326;2023-03-14T08:20:28;13.90;;;10.70;;
23658;SDS011;12006;42.666;23.326;2023-03-14T08:22:55;14.23;;;11.33;;
23658;SDS011;12006;42.666;23.326;2023-03-14T08:25:22;16.50;;;11.20;;
23658;SDS011;12006;42.666;23.326;2023-03-14T08:27:48;12.80;;;10.30;;
23658;SDS011;12006;42.666;23.326;2023-03-14T08:30:14;14.20;;;11.23;;
23658;SDS011;12006;42.666;23.326;2023-03-14T08:32:41;13.33;;;10.83;;
23658;SDS011;12006;42.666;23.326;2023-03-14T08:35:07;12.90;;;10.90;;
23658;SDS011;12006;42.666;23.326;2023-03-14T08:37:33;13.43;;;10.20;;
23658;SDS011;12006;42.666;23.326;2023-03-14T08:40:00;22.77;;;15.27;;
23658;SDS011;12006;42.666;23.326;2023-03-14T08:42:26;13.63;;;10.67;;
23658;SDS011;12006;42.666;23.326;2023-03-14T08:44:52;13.10;;;10.00;;
23658;SDS011;12006;42.666;23.326;2023-03-14T08:47:17;15.80;;;10.93;;
23658;SDS011;12006;42.666;23.326;2023-03-14T08:49:43;17.80;;;13.93;;
23658;SDS011;12006;42.666;23.326;2023-03-14T08:52:09;12.30;;;10.50;;
23658;SDS011;12006;42.666;23.326;2023-03-14T08:54:34;12.27;;;9.70;;
23658;SDS011;12006;42.666;23.326;2023-03-14T08:57:00;12.77;;;11.33;;
23658;SDS011;12006;42.666;23.326;2023-03-14T08:59:25;14.03;;;10.00;;
23658;SDS011;12006;42.666;23.326;2023-03-14T09:01:51;12.10;;;9.83;;
23658;SDS011;12006;42.666;23.326;2023-03-14T09:04:16;13.13;;;10.13;;
23658;SDS011;12006;42.666;23.326;2023-03-14T09:06:42;12.03;;;9.97;;
23658;SDS011;12006;42.666;23.326;2023-03-14T09:09:07;12.27;;;10.80;;
23658;SDS011;12006;42.666;23.326;2023-03-14T09:11:33;10.63;;;8.50;;
23658;SDS011;12006;42.666;23.326;2023-03-14T09:13:59;11.17;;;9.07;;
23658;SDS011;12006;42.666;23.326;2023-03-14T09:16:24;11.07;;;9.40;;
23658;SDS011;12006;42.666;23.326;2023-03-14T09:18:50;11.13;;;9.10;;
23658;SDS011;12006;42.666;23.326;2023-03-14T09:21:19;10.03;;;8.30;;
23658;SDS011;12006;42.666;23.326;2023-03-14T09:23:45;12.10;;;8.20;;
23658;SDS011;12006;42.666;23.326;2023-03-14T09:26:11;7.53;;;6.73;;
23658;SDS011;12006;42.666;23.326;2023-03-14T09:28:36;8.70;;;7.77;;
23658;SDS011;12006;42.666;23.326;2023-03-14T09:31:05;8.13;;;7.43;;
23658;SDS011;12006;42.666;23.326;2023-03-14T09:33:35;8.03;;;6.83;;
23658;SDS011;12006;42.666;23.326;2023-03-14T09:36:01;9.40;;;7.97;;
23658;SDS011;12006;42.666;23.326;2023-03-14T09:38:27;10.00;;;8.30;;
23658;SDS011;12006;42.666;23.326;2023-03-14T09:40:53;10.30;;;8.67;;
23658;SDS011;12006;42.666;23.326;2023-03-14T09:43:20;8.77;;;7.87;;
23658;SDS011;12006;42.666;23.326;2023-03-14T09:45:47;10.13;;;7.57;;
23658;SDS011;12006;42.666;23.326;2023-03-14T09:48:24;8.03;;;6.63;;
23658;SDS011;12006;42.666;23.326;2023-03-14T09:50:56;8.50;;;7.00;;
23658;SDS011;12006;42.666;23.326;2023-03-14T09:53:26;10.33;;;7.47;;
23658;SDS011;12006;42.666;23.326;2023-03-14T09:55:54;10.47;;;8.67;;
23658;SDS011;12006;42.666;23.326;2023-03-14T09:58:23;9.10;;;8.10;;
23658;SDS011;12006;42.666;23.326;2023-03-14T10:00:50;8.47;;;7.27;;
23658;SDS011;12006;42.666;23.326;2023-03-14T10:05:56;7.23;;;6.33;;
23658;SDS011;12006;42.666;23.326;2023-03-14T10:08:22;7.30;;;6.30;;
23658;SDS011;12006;42.666;23.326;2023-03-14T10:10:47;7.30;;;6.07;;
23658;SDS011;12006;42.666;23.326;2023-03-14T10:13:15;7.57;;;6.80;;
23658;SDS011;12006;42.666;23.326;2023-03-14T10:15:58;7.70;;;6.83;;
23658;SDS011;12006;42.666;23.326;2023-03-14T10:18:27;9.93;;;7.17;;
23658;SDS011;12006;42.666;23.326;2023-03-14T10:21:15;9.67;;;6.90;;
23658;SDS011;12006;42.666;23.326;2023-03-14T10:23:45;10.07;;;7.50;;
23658;SDS011;12006;42.666;23.326;2023-03-14T10:26:18;8.40;;;7.37;;
23658;SDS011;12006;42.666;23.326;2023-03-14T10:28:54;8.30;;;7.40;;
23658;SDS011;12006;42.666;23.326;2023-03-14T10:31:28;11.63;;;9.90;;
23658;SDS011;12006;42.666;23.326;2023-03-14T10:34:15;12.13;;;9.17;;
23658;SDS011;12006;42.666;23.326;2023-03-14T10:36:42;10.83;;;8.33;;
23658;SDS011;12006;42.666;23.326;2023-03-14T10:39:27;9.83;;;7.80;;
23658;SDS011;12006;42.666;23.326;2023-03-14T10:42:03;8.70;;;6.87;;
23658;SDS011;12006;42.666;23.326;2023-03-14T10:44:41;10.57;;;6.47;;
23658;SDS011;12006;42.666;23.326;2023-03-14T10:47:12;10.73;;;6.90;;
23658;SDS011;12006;42.666;23.326;2023-03-14T10:49:49;8.53;;;6.60;;
23658;SDS011;12006;42.666;23.326;2023-03-14T10:54:47;8.57;;;7.33;;
23658;SDS011;12006;42.666;23.326;2023-03-14T10:57:13;7.70;;;6.53;;
23658;SDS011;12006;42.666;23.326;2023-03-14T10:59:40;6.17;;;5.60;;
23658;SDS011;12006;42.666;23.326;2023-03-14T11:02:19;6.37;;;5.57;;
23658;SDS011;12006;42.666;23.326;2023-03-14T11:07:41;6.03;;;5.47;;
23658;SDS011;12006;42.666;23.326;2023-03-14T11:10:14;6.30;;;5.20;;
23658;SDS011;12006;42.666;23.326;2023-03-14T11:20:51;5.38;;;4.55;;
23658;SDS011;12006;42.666;23.326;2023-03-14T11:23:58;4.10;;;3.78;;
23658;SDS011;12006;42.666;23.326;2023-03-14T11:29:38;4.90;;;3.50;;
23658;SDS011;12006;42.666;23.326;2023-03-14T11:32:10;3.80;;;3.35;;
23658;SDS011;12006;42.666;23.326;2023-03-14T11:34:57;3.72;;;3.42;;
23658;SDS011;12006;42.666;23.326;2023-03-14T11:37:34;4.18;;;3.78;;
23658;SDS011;12006;42.666;23.326;2023-03-14T11:40:08;4.82;;;3.70;;
23658;SDS011;12006;42.666;23.326;2023-03-14T11:42:46;4.90;;;3.95;;
23658;SDS011;12006;42.666;23.326;2023-03-14T11:45:18;6.32;;;3.65;;
23658;SDS011;12006;42.666;23.326;2023-03-14T11:48:05;4.32;;;3.10;;
23658;SDS011;12006;42.666;23.326;2023-03-14T11:50:32;3.97;;;3.47;;
23658;SDS011;12006;42.666;23.326;2023-03-14T11:53:13;5.50;;;3.70;;
23658;SDS011;12006;42.666;23.326;2023-03-14T11:55:42;3.83;;;3.10;;
23658;SDS011;12006;42.666;23.326;2023-03-14T12:00:39;6.43;;;4.32;;
23658;SDS011;12006;42.666;23.326;2023-03-14T12:03:14;3.70;;;3.20;;
23658;SDS011;12006;42.666;23.326;2023-03-14T12:08:19;3.28;;;2.85;;
23658;SDS011;12006;42.666;23.326;2023-03-14T12:10:55;3.65;;;2.75;;
23658;SDS011;12006;42.666;23.326;2023-03-14T12:13:28;4.88;;;3.25;;
23658;SDS011;12006;42.666;23.326;2023-03-14T12:15:58;3.78;;;3.05;;
23658;SDS011;12006;42.666;23.326;2023-03-14T12:18:28;4.35;;;2.70;;
23658;SDS011;12006;42.666;23.326;2023-03-14T12:20:56;4.32;;;3.50;;
23658;SDS011;12006;42.666;23.326;2023-03-14T12:23:25;4.78;;;3.08;;
23658;SDS011;12006;42.666;23.326;2023-03-14T12:28:37;3.00;;;2.80;;
23658;SDS011;12006;42.666;23.326;2023-03-14T12:42:07;3.97;;;2.83;;
23658;SDS011;12006;42.666;23.326;2023-03-14T12:44:38;3.80;;;2.67;;
23658;SDS011;12006;42.666;23.326;2023-03-14T12:49:46;3.10;;;2.40;;
23658;SDS011;12006;42.666;23.326;2023-03-14T12:52:14;4.85;;;3.53;;
23658;SDS011;12006;42.666;23.326;2023-03-14T12:57:25;3.35;;;2.70;;
23658;SDS011;12006;42.666;23.326;2023-03-14T12:59:58;2.67;;;2.17;;
23658;SDS011;12006;42.666;23.326;2023-03-14T13:02:29;3.65;;;2.60;;
23658;SDS011;12006;42.666;23.326;2023-03-14T13:05:08;4.07;;;3.65;;
23658;SDS011;12006;42.666;23.326;2023-03-14T13:12:36;2.35;;;2.15;;
23658;SDS011;12006;42.666;23.326;2023-03-14T13:15:31;3.08;;;2.75;;
23658;SDS011;12006;42.666;23.326;2023-03-14T13:18:00;4.03;;;3.08;;
23658;SDS011;12006;42.666;23.326;2023-03-14T13:20:35;3.80;;;2.28;;
23658;SDS011;12006;42.666;23.326;2023-03-14T13:23:03;2.65;;;2.20;;
23658;SDS011;12006;42.666;23.326;2023-03-14T13:25:31;3.08;;;2.80;;
23658;SDS011;12006;42.666;23.326;2023-03-14T13:27:58;3.05;;;2.03;;
23658;SDS011;12006;42.666;23.326;2023-03-14T13:30:25;3.90;;;2.33;;
23658;SDS011;12006;42.666;23.326;2023-03-14T13:32:53;5.85;;;2.72;;
23658;SDS011;12006;42.666;23.326;2023-03-14T13:35:21;3.58;;;2.08;;
23658;SDS011;12006;42.666;23.326;2023-03-14T13:37:55;3.60;;;2.90;;
23658;SDS011;12006;42.666;23.326;2023-03-14T13:40:27;2.53;;;2.33;;
23658;SDS011;12006;42.666;23.326;2023-03-14T13:43:02;1.83;;;1.73;;
23658;SDS011;12006;42.666;23.326;2023-03-14T13:48:35;2.80;;;2.25;;
23658;SDS011;12006;42.666;23.326;2023-03-14T13:51:10;2.53;;;2.30;;
23658;SDS011;12006;42.666;23.326;2023-03-14T13:53:42;2.42;;;2.22;;
23658;SDS011;12006;42.666;23.326;2023-03-14T13:56:09;5.75;;;2.10;;
23658;SDS011;12006;42.666;23.326;2023-03-14T13:58:37;2.33;;;1.85;;
23658;SDS011;12006;42.666;23.326;2023-03-14T14:01:05;2.60;;;2.08;;
23658;SDS011;12006;42.666;23.326;2023-03-14T14:03:38;3.17;;;2.88;;
23658;SDS011;12006;42.666;23.326;2023-03-14T14:06:10;4.85;;;4.00;;
23658;SDS011;12006;42.666;23.326;2023-03-14T14:08:46;2.80;;;2.60;;
23658;SDS011;12006;42.666;23.326;2023-03-14T14:11:16;2.50;;;2.23;;
23658;SDS011;12006;42.666;23.326;2023-03-14T14:14:01;3.00;;;2.17;;
23658;SDS011;12006;42.666;23.326;2023-03-14T14:16:27;2.10;;;2.00;;
23658;SDS011;12006;42.666;23.326;2023-03-14T14:18:54;2.30;;;2.10;;
23658;SDS011;12006;42.666;23.326;2023-03-14T14:21:23;2.60;;;2.00;;
23658;SDS011;12006;42.666;23.326;2023-03-14T14:23:49;2.40;;;2.17;;
23658;SDS011;12006;42.666;23.326;2023-03-14T14:26:18;3.23;;;2.10;;
23658;SDS011;12006;42.666;23.326;2023-03-14T14:28:45;2.03;;;1.77;;
23658;SDS011;12006;42.666;23.326;2023-03-14T14:33:53;3.47;;;2.00;;
23658;SDS011;12006;42.666;23.326;2023-03-14T14:36:22;1.80;;;1.70;;
23658;SDS011;12006;42.666;23.326;2023-03-14T14:38:56;1.77;;;1.63;;
23658;SDS011;12006;42.666;23.326;2023-03-14T14:41:22;10.77;;;5.40;;
23658;SDS011;12006;42.666;23.326;2023-03-14T14:43:52;4.10;;;2.17;;
23658;SDS011;12006;42.666;23.326;2023-03-14T14:46:18;3.20;;;1.80;;
23658;SDS011;12006;42.666;23.326;2023-03-14T14:48:44;2.63;;;1.70;;
23658;SDS011;12006;42.666;23.326;2023-03-14T14:51:21;3.17;;;1.90;;
23658;SDS011;12006;42.666;23.326;2023-03-14T14:53:48;3.07;;;2.73;;
23658;SDS011;12006;42.666;23.326;2023-03-14T14:56:18;1.93;;;1.60;;
23658;SDS011;12006;42.666;23.326;2023-03-14T14:58:47;5.73;;;2.20;;
23658;SDS011;12006;42.666;23.326;2023-03-14T15:01:15;4.27;;;1.70;;
23658;SDS011;12006;42.666;23.326;2023-03-14T15:03:44;1.92;;;1.77;;
23658;SDS011;12006;42.666;23.326;2023-03-14T15:06:12;2.80;;;2.00;;
23658;SDS011;12006;42.666;23.326;2023-03-14T15:08:38;2.77;;;2.13;;
23658;SDS011;12006;42.666;23.326;2023-03-14T15:11:04;2.70;;;2.30;;
23658;SDS011;12006;42.666;23.326;2023-03-14T15:13:30;2.37;;;2.07;;
23658;SDS011;12006;42.666;23.326;2023-03-14T15:15:55;2.17;;;1.97;;
23658;SDS011;12006;42.666;23.326;2023-03-14T15:18:23;3.97;;;3.57;;
23658;SDS011;12006;42.666;23.326;2023-03-14T15:20:50;1.43;;;1.33;;
23658;SDS011;12006;42.666;23.326;2023-03-14T15:23:17;2.77;;;2.30;;
23658;SDS011;12006;42.666;23.326;2023-03-14T15:25:43;4.17;;;3.77;;
23658;SDS011;12006;42.666;23.326;2023-03-14T15:28:21;2.13;;;1.90;;